KCVX

Charlevoix Municipal Airport

Charlevoix, Michigan, USA
METAR KCVX 160555Z AUTO 07006KT 10SM CLR 21/16 A3001 RMK AO2 T02110155 10236 20210
Observed Flight Rules
Aug-16 @ 05:55 UTC (20 minutes ago) Visual Flight Rules
Wind Visibility Clouds
70° at 6 knots 10 miles
  • Clear skies
Temperatures Readings
Current 21°C / 70°F
Dewpoint 16°C / 61°F
Humidity 73%
Altimeter 30.01" Hg
Pressure 1016 hPa
Elevation 204
METAR KCVX 160555Z AUTO 07006KT 10SM CLR 21/16 A3001 RMK AO2 T02110155 10236 20210
Observed Flight Rules
Aug-16 @ 05:55 UTC
(20 minutes ago)
VFR
Wind Visibility
70° at 6 knots 10 miles
Clouds
  • Clear skies
Temperature Dewpoint
21°C / 70°F 16°C / 61°F
Humidity Altimeter Pressure
73% 30.01" Hg 1016 hPa